sensor_id;sensor_type;location;lat;lon;timestamp;temperature;humidity
2130;DHT22;1071;52.544;13.374;2024-02-21T00:01:52;11.50;99.90
2130;DHT22;1071;52.544;13.374;2024-02-21T00:04:22;11.50;99.90
2130;DHT22;1071;52.544;13.374;2024-02-21T00:06:49;11.50;99.90
2130;DHT22;1071;52.544;13.374;2024-02-21T00:09:16;11.50;99.90
2130;DHT22;1071;52.544;13.374;2024-02-21T00:11:45;11.50;99.90
2130;DHT22;1071;52.544;13.374;2024-02-21T00:14:17;11.50;99.90
2130;DHT22;1071;52.544;13.374;2024-02-21T00:16:44;11.50;99.90
2130;DHT22;1071;52.544;13.374;2024-02-21T00:19:11;11.40;99.90
2130;DHT22;1071;52.544;13.374;2024-02-21T00:21:40;11.50;99.90
2130;DHT22;1071;52.544;13.374;2024-02-21T00:24:07;11.40;99.90
2130;DHT22;1071;52.544;13.374;2024-02-21T00:26:34;11.40;99.90
2130;DHT22;1071;52.544;13.374;2024-02-21T00:29:01;11.40;99.90
2130;DHT22;1071;52.544;13.374;2024-02-21T00:31:32;11.40;99.90
2130;DHT22;1071;52.544;13.374;2024-02-21T00:34:02;11.30;99.90
2130;DHT22;1071;52.544;13.374;2024-02-21T00:36:29;11.30;99.90
2130;DHT22;1071;52.544;13.374;2024-02-21T00:38:56;11.20;99.90
2130;DHT22;1071;52.544;13.374;2024-02-21T00:41:23;11.20;99.90
2130;DHT22;1071;52.544;13.374;2024-02-21T00:43:51;11.20;99.90
2130;DHT22;1071;52.544;13.374;2024-02-21T00:46:20;11.20;99.90
2130;DHT22;1071;52.544;13.374;2024-02-21T00:48:48;11.20;99.90
2130;DHT22;1071;52.544;13.374;2024-02-21T00:51:18;11.10;99.90
2130;DHT22;1071;52.544;13.374;2024-02-21T00:53:47;11.10;99.90
2130;DHT22;1071;52.544;13.374;2024-02-21T00:56:16;11.10;99.90
2130;DHT22;1071;52.544;13.374;2024-02-21T00:58:43;11.00;99.90
2130;DHT22;1071;52.544;13.374;2024-02-21T01:01:10;11.00;99.90
2130;DHT22;1071;52.544;13.374;2024-02-21T01:03:39;11.00;99.90
2130;DHT22;1071;52.544;13.374;2024-02-21T01:06:08;11.00;99.90
2130;DHT22;1071;52.544;13.374;2024-02-21T01:08:35;11.00;99.90
2130;DHT22;1071;52.544;13.374;2024-02-21T01:11:02;11.00;99.90
2130;DHT22;1071;52.544;13.374;2024-02-21T01:13:32;11.00;99.90
2130;DHT22;1071;52.544;13.374;2024-02-21T01:16:03;10.90;99.90
2130;DHT22;1071;52.544;13.374;2024-02-21T01:18:32;10.90;99.90
2130;DHT22;1071;52.544;13.374;2024-02-21T01:20:59;10.90;99.90
2130;DHT22;1071;52.544;13.374;2024-02-21T01:23:28;10.90;99.90
2130;DHT22;1071;52.544;13.374;2024-02-21T01:25:58;10.90;99.90
2130;DHT22;1071;52.544;13.374;2024-02-21T01:28:26;10.90;99.90
2130;DHT22;1071;52.544;13.374;2024-02-21T01:30:53;10.90;99.90
2130;DHT22;1071;52.544;13.374;2024-02-21T01:33:20;10.90;99.90
2130;DHT22;1071;52.544;13.374;2024-02-21T01:35:47;10.90;99.90
2130;DHT22;1071;52.544;13.374;2024-02-21T01:38:14;10.90;99.90
2130;DHT22;1071;52.544;13.374;2024-02-21T01:40:43;10.90;99.90
2130;DHT22;1071;52.544;13.374;2024-02-21T01:43:17;11.00;99.90
2130;DHT22;1071;52.544;13.374;2024-02-21T01:45:51;10.90;99.90
2130;DHT22;1071;52.544;13.374;2024-02-21T01:48:19;10.90;99.90
2130;DHT22;1071;52.544;13.374;2024-02-21T01:50:45;10.90;99.90
2130;DHT22;1071;52.544;13.374;2024-02-21T01:53:14;10.90;99.90
2130;DHT22;1071;52.544;13.374;2024-02-21T01:55:48;10.90;99.90
2130;DHT22;1071;52.544;13.374;2024-02-21T01:58:16;10.90;99.90
2130;DHT22;1071;52.544;13.374;2024-02-21T02:00:44;11.00;99.90
2130;DHT22;1071;52.544;13.374;2024-02-21T02:03:12;11.10;99.90
2130;DHT22;1071;52.544;13.374;2024-02-21T02:05:43;11.10;99.90
2130;DHT22;1071;52.544;13.374;2024-02-21T02:08:11;11.20;99.90
2130;DHT22;1071;52.544;13.374;2024-02-21T02:10:41;11.30;99.90
2130;DHT22;1071;52.544;13.374;2024-02-21T02:13:10;11.40;99.90
2130;DHT22;1071;52.544;13.374;2024-02-21T02:15:42;11.40;99.90
2130;DHT22;1071;52.544;13.374;2024-02-21T02:18:09;11.50;99.90
2130;DHT22;1071;52.544;13.374;2024-02-21T02:20:40;11.60;99.90
2130;DHT22;1071;52.544;13.374;2024-02-21T02:23:11;11.60;99.90
2130;DHT22;1071;52.544;13.374;2024-02-21T02:25:40;11.70;99.90
2130;DHT22;1071;52.544;13.374;2024-02-21T02:28:11;11.70;99.90
2130;DHT22;1071;52.544;13.374;2024-02-21T02:30:38;11.70;99.90
2130;DHT22;1071;52.544;13.374;2024-02-21T02:33:05;11.80;99.90
2130;DHT22;1071;52.544;13.374;2024-02-21T02:35:32;11.80;99.90
2130;DHT22;1071;52.544;13.374;2024-02-21T02:38:03;11.80;99.90
2130;DHT22;1071;52.544;13.374;2024-02-21T02:40:30;11.80;99.90
2130;DHT22;1071;52.544;13.374;2024-02-21T02:42:58;11.90;99.90
2130;DHT22;1071;52.544;13.374;2024-02-21T02:45:25;11.90;99.90
2130;DHT22;1071;52.544;13.374;2024-02-21T02:47:53;11.90;99.90
2130;DHT22;1071;52.544;13.374;2024-02-21T02:50:22;11.90;99.90
2130;DHT22;1071;52.544;13.374;2024-02-21T02:52:50;11.90;99.90
2130;DHT22;1071;52.544;13.374;2024-02-21T02:55:17;11.90;99.90
2130;DHT22;1071;52.544;13.374;2024-02-21T02:57:44;11.90;99.90
2130;DHT22;1071;52.544;13.374;2024-02-21T03:00:13;11.90;99.90
2130;DHT22;1071;52.544;13.374;2024-02-21T03:02:42;11.90;99.90
2130;DHT22;1071;52.544;13.374;2024-02-21T03:05:13;11.90;99.90
2130;DHT22;1071;52.544;13.374;2024-02-21T03:07:41;11.80;99.90
2130;DHT22;1071;52.544;13.374;2024-02-21T03:10:09;11.80;99.90
2130;DHT22;1071;52.544;13.374;2024-02-21T03:12:37;11.80;99.90
2130;DHT22;1071;52.544;13.374;2024-02-21T03:15:05;11.70;99.90
2130;DHT22;1071;52.544;13.374;2024-02-21T03:17:35;11.70;99.90
2130;DHT22;1071;52.544;13.374;2024-02-21T03:20:02;11.70;99.90
2130;DHT22;1071;52.544;13.374;2024-02-21T03:22:31;11.60;99.90
2130;DHT22;1071;52.544;13.374;2024-02-21T03:24:58;11.60;99.90
2130;DHT22;1071;52.544;13.374;2024-02-21T03:27:25;11.50;99.90
2130;DHT22;1071;52.544;13.374;2024-02-21T03:29:53;11.50;99.90
2130;DHT22;1071;52.544;13.374;2024-02-21T03:32:20;11.50;99.90
2130;DHT22;1071;52.544;13.374;2024-02-21T03:34:51;11.50;99.90
2130;DHT22;1071;52.544;13.374;2024-02-21T03:37:18;11.40;99.90
2130;DHT22;1071;52.544;13.374;2024-02-21T03:39:45;11.40;99.90
2130;DHT22;1071;52.544;13.374;2024-02-21T03:42:12;11.40;99.90
2130;DHT22;1071;52.544;13.374;2024-02-21T03:44:39;11.40;99.90
2130;DHT22;1071;52.544;13.374;2024-02-21T03:47:06;11.30;99.90
2130;DHT22;1071;52.544;13.374;2024-02-21T03:49:36;11.30;99.90
2130;DHT22;1071;52.544;13.374;2024-02-21T03:52:05;11.20;99.90
2130;DHT22;1071;52.544;13.374;2024-02-21T03:54:35;11.20;99.90
2130;DHT22;1071;52.544;13.374;2024-02-21T03:57:05;11.10;99.90
2130;DHT22;1071;52.544;13.374;2024-02-21T03:59:34;11.00;99.90
2130;DHT22;1071;52.544;13.374;2024-02-21T04:02:01;10.90;99.90
2130;DHT22;1071;52.544;13.374;2024-02-21T04:04:35;10.90;99.90
2130;DHT22;1071;52.544;13.374;2024-02-21T04:07:05;11.00;99.90
2130;DHT22;1071;52.544;13.374;2024-02-21T04:09:34;10.90;99.90
2130;DHT22;1071;52.544;13.374;2024-02-21T04:12:01;11.00;99.90
2130;DHT22;1071;52.544;13.374;2024-02-21T04:14:30;10.90;99.90
2130;DHT22;1071;52.544;13.374;2024-02-21T04:16:58;11.00;99.90
2130;DHT22;1071;52.544;13.374;2024-02-21T04:19:25;11.00;99.90
2130;DHT22;1071;52.544;13.374;2024-02-21T04:21:53;11.00;99.90
2130;DHT22;1071;52.544;13.374;2024-02-21T04:24:24;11.10;99.90
2130;DHT22;1071;52.544;13.374;2024-02-21T04:26:51;11.10;99.90
2130;DHT22;1071;52.544;13.374;2024-02-21T04:29:20;11.00;99.90
2130;DHT22;1071;52.544;13.374;2024-02-21T04:31:52;11.10;99.90
2130;DHT22;1071;52.544;13.374;2024-02-21T04:34:22;11.00;99.90
2130;DHT22;1071;52.544;13.374;2024-02-21T04:36:49;11.00;99.90
2130;DHT22;1071;52.544;13.374;2024-02-21T04:39:16;10.90;99.90
2130;DHT22;1071;52.544;13.374;2024-02-21T04:41:45;10.90;99.90
2130;DHT22;1071;52.544;13.374;2024-02-21T04:44:12;10.80;99.90
2130;DHT22;1071;52.544;13.374;2024-02-21T04:46:42;10.80;99.90
2130;DHT22;1071;52.544;13.374;2024-02-21T04:49:09;10.80;99.90
2130;DHT22;1071;52.544;13.374;2024-02-21T04:51:36;10.80;99.90
2130;DHT22;1071;52.544;13.374;2024-02-21T04:54:03;10.90;99.90
2130;DHT22;1071;52.544;13.374;2024-02-21T04:56:48;10.80;99.90
2130;DHT22;1071;52.544;13.374;2024-02-21T04:59:17;10.80;99.90
2130;DHT22;1071;52.544;13.374;2024-02-21T05:01:45;10.80;99.90
2130;DHT22;1071;52.544;13.374;2024-02-21T05:04:14;10.80;99.90
2130;DHT22;1071;52.544;13.374;2024-02-21T05:06:44;10.70;99.90
2130;DHT22;1071;52.544;13.374;2024-02-21T05:09:12;10.70;99.90
2130;DHT22;1071;52.544;13.374;2024-02-21T05:11:39;10.70;99.90
2130;DHT22;1071;52.544;13.374;2024-02-21T05:14:06;10.80;99.90
2130;DHT22;1071;52.544;13.374;2024-02-21T05:16:35;10.80;99.90
2130;DHT22;1071;52.544;13.374;2024-02-21T05:19:01;10.80;99.90
2130;DHT22;1071;52.544;13.374;2024-02-21T05:21:29;10.80;99.90
2130;DHT22;1071;52.544;13.374;2024-02-21T05:23:56;10.80;99.90
2130;DHT22;1071;52.544;13.374;2024-02-21T05:26:27;10.80;99.90
2130;DHT22;1071;52.544;13.374;2024-02-21T05:28:54;10.80;99.90
2130;DHT22;1071;52.544;13.374;2024-02-21T05:31:21;10.80;99.90
2130;DHT22;1071;52.544;13.374;2024-02-21T05:33:50;10.70;99.90
2130;DHT22;1071;52.544;13.374;2024-02-21T05:36:17;10.80;99.90
2130;DHT22;1071;52.544;13.374;2024-02-21T05:38:44;10.70;99.90
2130;DHT22;1071;52.544;13.374;2024-02-21T05:41:22;10.80;99.90
2130;DHT22;1071;52.544;13.374;2024-02-21T05:43:52;10.80;99.90
2130;DHT22;1071;52.544;13.374;2024-02-21T05:46:19;10.80;99.90
2130;DHT22;1071;52.544;13.374;2024-02-21T05:48:46;10.80;99.90
2130;DHT22;1071;52.544;13.374;2024-02-21T05:51:15;10.80;99.90
2130;DHT22;1071;52.544;13.374;2024-02-21T05:53:45;10.80;99.90
2130;DHT22;1071;52.544;13.374;2024-02-21T05:56:13;10.80;99.90
2130;DHT22;1071;52.544;13.374;2024-02-21T05:58:44;10.80;99.90
2130;DHT22;1071;52.544;13.374;2024-02-21T06:01:12;10.80;99.90
2130;DHT22;1071;52.544;13.374;2024-02-21T06:03:41;10.90;99.90
2130;DHT22;1071;52.544;13.374;2024-02-21T06:06:08;10.80;99.90
2130;DHT22;1071;52.544;13.374;2024-02-21T06:08:39;10.80;99.90
2130;DHT22;1071;52.544;13.374;2024-02-21T06:11:15;10.80;99.90
2130;DHT22;1071;52.544;13.374;2024-02-21T06:13:50;10.80;99.90
2130;DHT22;1071;52.544;13.374;2024-02-21T06:16:23;10.70;99.90
2130;DHT22;1071;52.544;13.374;2024-02-21T06:18:52;10.70;99.90
2130;DHT22;1071;52.544;13.374;2024-02-21T06:21:19;10.60;99.90
2130;DHT22;1071;52.544;13.374;2024-02-21T06:23:48;10.60;99.90
2130;DHT22;1071;52.544;13.374;2024-02-21T06:26:15;10.50;99.90
2130;DHT22;1071;52.544;13.374;2024-02-21T06:28:42;10.50;99.90
2130;DHT22;1071;52.544;13.374;2024-02-21T06:31:09;10.60;99.90
2130;DHT22;1071;52.544;13.374;2024-02-21T06:33:42;10.60;99.90
2130;DHT22;1071;52.544;13.374;2024-02-21T06:36:16;10.60;99.90
2130;DHT22;1071;52.544;13.374;2024-02-21T06:38:53;10.60;99.90
2130;DHT22;1071;52.544;13.374;2024-02-21T06:41:20;10.60;99.90
2130;DHT22;1071;52.544;13.374;2024-02-21T06:43:47;10.70;99.90
2130;DHT22;1071;52.544;13.374;2024-02-21T06:46:23;10.70;99.90
2130;DHT22;1071;52.544;13.374;2024-02-21T06:48:54;10.60;99.90
2130;DHT22;1071;52.544;13.374;2024-02-21T06:51:25;10.70;99.90
2130;DHT22;1071;52.544;13.374;2024-02-21T06:53:55;10.80;99.90
2130;DHT22;1071;52.544;13.374;2024-02-21T06:56:23;10.80;99.90
2130;DHT22;1071;52.544;13.374;2024-02-21T06:59:00;10.90;99.90
2130;DHT22;1071;52.544;13.374;2024-02-21T07:01:30;11.00;99.90
2130;DHT22;1071;52.544;13.374;2024-02-21T07:03:57;11.00;99.90
2130;DHT22;1071;52.544;13.374;2024-02-21T07:06:24;11.00;99.90
2130;DHT22;1071;52.544;13.374;2024-02-21T07:08:55;11.10;99.90
2130;DHT22;1071;52.544;13.374;2024-02-21T07:11:24;11.20;99.90
2130;DHT22;1071;52.544;13.374;2024-02-21T07:13:52;11.20;99.90
2130;DHT22;1071;52.544;13.374;2024-02-21T07:16:18;11.20;99.90
2130;DHT22;1071;52.544;13.374;2024-02-21T07:18:47;11.30;99.90
2130;DHT22;1071;52.544;13.374;2024-02-21T07:21:16;11.30;99.90
2130;DHT22;1071;52.544;13.374;2024-02-21T07:23:46;11.40;99.90
2130;DHT22;1071;52.544;13.374;2024-02-21T07:26:20;11.40;99.90
2130;DHT22;1071;52.544;13.374;2024-02-21T07:28:47;11.40;99.90
2130;DHT22;1071;52.544;13.374;2024-02-21T07:31:19;11.40;99.90
2130;DHT22;1071;52.544;13.374;2024-02-21T07:33:49;11.40;99.90
2130;DHT22;1071;52.544;13.374;2024-02-21T07:36:23;11.40;99.90
2130;DHT22;1071;52.544;13.374;2024-02-21T07:38:50;11.30;99.90
2130;DHT22;1071;52.544;13.374;2024-02-21T07:41:19;11.30;99.90
2130;DHT22;1071;52.544;13.374;2024-02-21T07:43:48;11.40;99.90
2130;DHT22;1071;52.544;13.374;2024-02-21T07:46:15;11.40;99.90
2130;DHT22;1071;52.544;13.374;2024-02-21T07:48:45;11.40;99.90
2130;DHT22;1071;52.544;13.374;2024-02-21T07:51:42;11.50;99.90
2130;DHT22;1071;52.544;13.374;2024-02-21T07:54:09;11.50;99.90
2130;DHT22;1071;52.544;13.374;2024-02-21T07:56:40;11.50;99.90
2130;DHT22;1071;52.544;13.374;2024-02-21T07:59:07;11.60;99.90
2130;DHT22;1071;52.544;13.374;2024-02-21T08:01:38;11.60;99.90
2130;DHT22;1071;52.544;13.374;2024-02-21T08:04:05;11.50;99.90
2130;DHT22;1071;52.544;13.374;2024-02-21T08:06:33;11.60;99.90
2130;DHT22;1071;52.544;13.374;2024-02-21T08:09:00;11.60;99.90
2130;DHT22;1071;52.544;13.374;2024-02-21T08:11:39;11.70;99.90
2130;DHT22;1071;52.544;13.374;2024-02-21T08:14:06;11.70;99.90
2130;DHT22;1071;52.544;13.374;2024-02-21T08:16:34;11.60;99.90
2130;DHT22;1071;52.544;13.374;2024-02-21T08:19:01;11.60;99.90
2130;DHT22;1071;52.544;13.374;2024-02-21T08:21:31;11.60;99.90
2130;DHT22;1071;52.544;13.374;2024-02-21T08:23:58;11.70;99.90
2130;DHT22;1071;52.544;13.374;2024-02-21T08:26:50;11.70;99.90
2130;DHT22;1071;52.544;13.374;2024-02-21T08:29:18;11.80;99.90
2130;DHT22;1071;52.544;13.374;2024-02-21T08:31:45;11.90;99.90
2130;DHT22;1071;52.544;13.374;2024-02-21T08:34:21;11.90;99.90
2130;DHT22;1071;52.544;13.374;2024-02-21T08:36:48;12.00;99.90
2130;DHT22;1071;52.544;13.374;2024-02-21T08:39:17;12.00;99.90
2130;DHT22;1071;52.544;13.374;2024-02-21T08:41:44;12.00;99.90
2130;DHT22;1071;52.544;13.374;2024-02-21T08:44:11;12.00;99.90
2130;DHT22;1071;52.544;13.374;2024-02-21T08:46:43;12.10;99.90
2130;DHT22;1071;52.544;13.374;2024-02-21T08:49:27;12.10;99.90
2130;DHT22;1071;52.544;13.374;2024-02-21T08:51:54;12.20;99.90
2130;DHT22;1071;52.544;13.374;2024-02-21T08:54:21;12.20;99.90
2130;DHT22;1071;52.544;13.374;2024-02-21T08:56:48;12.20;99.90
2130;DHT22;1071;52.544;13.374;2024-02-21T08:59:18;12.20;99.90
2130;DHT22;1071;52.544;13.374;2024-02-21T09:01:47;12.20;99.90
2130;DHT22;1071;52.544;13.374;2024-02-21T09:04:14;12.30;99.90
2130;DHT22;1071;52.544;13.374;2024-02-21T09:06:41;12.30;99.90
2130;DHT22;1071;52.544;13.374;2024-02-21T09:09:08;12.30;99.90
2130;DHT22;1071;52.544;13.374;2024-02-21T09:11:39;12.40;99.90
2130;DHT22;1071;52.544;13.374;2024-02-21T09:14:22;12.40;99.90
2130;DHT22;1071;52.544;13.374;2024-02-21T09:16:53;12.40;99.90
2130;DHT22;1071;52.544;13.374;2024-02-21T09:19:21;12.40;99.90
2130;DHT22;1071;52.544;13.374;2024-02-21T09:21:50;12.40;99.90
2130;DHT22;1071;52.544;13.374;2024-02-21T09:24:20;12.40;99.90
2130;DHT22;1071;52.544;13.374;2024-02-21T09:29:53;12.40;99.90
2130;DHT22;1071;52.544;13.374;2024-02-21T09:32:24;12.50;99.90
2130;DHT22;1071;52.544;13.374;2024-02-21T09:34:52;12.50;99.90
2130;DHT22;1071;52.544;13.374;2024-02-21T09:37:19;12.60;99.90
2130;DHT22;1071;52.544;13.374;2024-02-21T09:39:49;12.60;99.90
2130;DHT22;1071;52.544;13.374;2024-02-21T09:42:20;12.60;99.90
2130;DHT22;1071;52.544;13.374;2024-02-21T09:44:56;12.60;99.90
2130;DHT22;1071;52.544;13.374;2024-02-21T09:47:37;12.70;99.90
2130;DHT22;1071;52.544;13.374;2024-02-21T09:50:11;12.70;99.90
2130;DHT22;1071;52.544;13.374;2024-02-21T09:52:39;12.70;99.90
2130;DHT22;1071;52.544;13.374;2024-02-21T09:55:09;12.80;99.90
2130;DHT22;1071;52.544;13.374;2024-02-21T09:57:39;12.80;99.90
2130;DHT22;1071;52.544;13.374;2024-02-21T10:00:07;12.90;99.90
2130;DHT22;1071;52.544;13.374;2024-02-21T10:02:35;12.90;99.90
2130;DHT22;1071;52.544;13.374;2024-02-21T10:05:20;12.90;99.90
2130;DHT22;1071;52.544;13.374;2024-02-21T10:07:49;12.90;99.90
2130;DHT22;1071;52.544;13.374;2024-02-21T10:10:17;13.00;99.90
2130;DHT22;1071;52.544;13.374;2024-02-21T10:12:48;13.00;99.90
2130;DHT22;1071;52.544;13.374;2024-02-21T10:15:20;13.00;99.90
2130;DHT22;1071;52.544;13.374;2024-02-21T10:17:49;13.10;99.90
2130;DHT22;1071;52.544;13.374;2024-02-21T10:20:17;13.10;99.90
2130;DHT22;1071;52.544;13.374;2024-02-21T10:22:44;13.10;99.90
2130;DHT22;1071;52.544;13.374;2024-02-21T10:25:12;13.10;99.90
2130;DHT22;1071;52.544;13.374;2024-02-21T10:27:45;13.10;99.90
2130;DHT22;1071;52.544;13.374;2024-02-21T10:30:17;13.20;99.90
2130;DHT22;1071;52.544;13.374;2024-02-21T10:33:00;13.10;99.90
2130;DHT22;1071;52.544;13.374;2024-02-21T10:35:28;13.10;99.90
2130;DHT22;1071;52.544;13.374;2024-02-21T10:37:56;13.10;99.90
2130;DHT22;1071;52.544;13.374;2024-02-21T10:40:26;13.10;99.90
2130;DHT22;1071;52.544;13.374;2024-02-21T10:42:57;13.10;99.90
2130;DHT22;1071;52.544;13.374;2024-02-21T10:45:37;13.10;99.90
2130;DHT22;1071;52.544;13.374;2024-02-21T10:48:12;13.10;99.90
2130;DHT22;1071;52.544;13.374;2024-02-21T10:50:53;13.20;99.90
2130;DHT22;1071;52.544;13.374;2024-02-21T10:53:35;13.20;99.90
2130;DHT22;1071;52.544;13.374;2024-02-21T10:56:16;13.20;99.90
2130;DHT22;1071;52.544;13.374;2024-02-21T10:58:46;13.10;99.90
2130;DHT22;1071;52.544;13.374;2024-02-21T11:01:13;13.10;99.90
2130;DHT22;1071;52.544;13.374;2024-02-21T11:03:52;13.10;99.90
2130;DHT22;1071;52.544;13.374;2024-02-21T11:06:24;13.20;99.90
2130;DHT22;1071;52.544;13.374;2024-02-21T11:09:02;13.10;99.90
2130;DHT22;1071;52.544;13.374;2024-02-21T11:11:30;13.10;99.90
2130;DHT22;1071;52.544;13.374;2024-02-21T11:14:06;13.10;99.90
2130;DHT22;1071;52.544;13.374;2024-02-21T11:16:37;13.10;99.90
2130;DHT22;1071;52.544;13.374;2024-02-21T11:19:21;13.10;99.90
2130;DHT22;1071;52.544;13.374;2024-02-21T11:21:50;13.10;99.90
2130;DHT22;1071;52.544;13.374;2024-02-21T11:24:25;13.20;99.90
2130;DHT22;1071;52.544;13.374;2024-02-21T11:26:54;13.20;99.90
2130;DHT22;1071;52.544;13.374;2024-02-21T11:29:24;13.30;99.90
2130;DHT22;1071;52.544;13.374;2024-02-21T11:31:52;13.30;99.90
2130;DHT22;1071;52.544;13.374;2024-02-21T11:34:20;13.40;99.90
2130;DHT22;1071;52.544;13.374;2024-02-21T11:36:48;13.50;99.90
2130;DHT22;1071;52.544;13.374;2024-02-21T11:39:28;13.50;99.90
2130;DHT22;1071;52.544;13.374;2024-02-21T11:42:06;13.50;99.90
2130;DHT22;1071;52.544;13.374;2024-02-21T11:44:38;13.50;99.90
2130;DHT22;1071;52.544;13.374;2024-02-21T11:47:14;13.60;99.90
2130;DHT22;1071;52.544;13.374;2024-02-21T11:49:46;13.60;99.90
2130;DHT22;1071;52.544;13.374;2024-02-21T11:52:15;13.60;99.90
2130;DHT22;1071;52.544;13.374;2024-02-21T11:54:44;13.60;99.90
2130;DHT22;1071;52.544;13.374;2024-02-21T11:57:14;13.60;99.90
2130;DHT22;1071;52.544;13.374;2024-02-21T11:59:43;13.70;99.90
2130;DHT22;1071;52.544;13.374;2024-02-21T12:02:12;13.70;99.90
2130;DHT22;1071;52.544;13.374;2024-02-21T12:04:45;13.70;99.90
2130;DHT22;1071;52.544;13.374;2024-02-21T12:07:12;13.80;99.90
2130;DHT22;1071;52.544;13.374;2024-02-21T12:09:41;13.80;99.90
2130;DHT22;1071;52.544;13.374;2024-02-21T12:12:09;13.90;99.90
2130;DHT22;1071;52.544;13.374;2024-02-21T12:14:36;13.90;99.90
2130;DHT22;1071;52.544;13.374;2024-02-21T12:17:04;13.90;99.90
2130;DHT22;1071;52.544;13.374;2024-02-21T12:19:36;13.90;99.90
2130;DHT22;1071;52.544;13.374;2024-02-21T12:22:05;13.90;99.90
2130;DHT22;1071;52.544;13.374;2024-02-21T12:24:34;13.90;99.90
2130;DHT22;1071;52.544;13.374;2024-02-21T12:27:01;14.00;99.90
2130;DHT22;1071;52.544;13.374;2024-02-21T12:29:35;14.00;99.90
2130;DHT22;1071;52.544;13.374;2024-02-21T12:32:04;14.10;99.90
2130;DHT22;1071;52.544;13.374;2024-02-21T12:34:36;14.10;99.90
2130;DHT22;1071;52.544;13.374;2024-02-21T12:37:06;14.20;99.90
2130;DHT22;1071;52.544;13.374;2024-02-21T12:39:33;14.20;99.90
2130;DHT22;1071;52.544;13.374;2024-02-21T12:42:05;14.20;99.90
2130;DHT22;1071;52.544;13.374;2024-02-21T12:44:32;14.30;99.90
2130;DHT22;1071;52.544;13.374;2024-02-21T12:46:59;14.30;99.90
2130;DHT22;1071;52.544;13.374;2024-02-21T12:49:32;14.30;99.90
2130;DHT22;1071;52.544;13.374;2024-02-21T12:51:59;14.30;99.90
2130;DHT22;1071;52.544;13.374;2024-02-21T12:54:28;14.30;99.90
2130;DHT22;1071;52.544;13.374;2024-02-21T12:56:55;14.30;99.90
2130;DHT22;1071;52.544;13.374;2024-02-21T12:59:25;14.40;99.90
2130;DHT22;1071;52.544;13.374;2024-02-21T13:01:56;14.50;99.90
2130;DHT22;1071;52.544;13.374;2024-02-21T13:04:29;14.50;99.90
2130;DHT22;1071;52.544;13.374;2024-02-21T13:07:12;14.50;99.90
2130;DHT22;1071;52.544;13.374;2024-02-21T13:09:40;14.50;99.90
2130;DHT22;1071;52.544;13.374;2024-02-21T13:12:08;14.50;99.90
2130;DHT22;1071;52.544;13.374;2024-02-21T13:14:38;14.50;99.90
2130;DHT22;1071;52.544;13.374;2024-02-21T13:17:08;14.60;99.90
2130;DHT22;1071;52.544;13.374;2024-02-21T13:19:38;14.60;99.90
2130;DHT22;1071;52.544;13.374;2024-02-21T13:22:06;14.50;99.90
2130;DHT22;1071;52.544;13.374;2024-02-21T13:24:33;14.50;99.90
2130;DHT22;1071;52.544;13.374;2024-02-21T13:27:01;14.50;99.90
2130;DHT22;1071;52.544;13.374;2024-02-21T13:29:28;14.60;99.90
2130;DHT22;1071;52.544;13.374;2024-02-21T13:32:01;14.60;99.90
2130;DHT22;1071;52.544;13.374;2024-02-21T13:34:37;14.60;99.90
2130;DHT22;1071;52.544;13.374;2024-02-21T13:37:04;14.60;99.90
2130;DHT22;1071;52.544;13.374;2024-02-21T13:39:38;14.60;99.90
2130;DHT22;1071;52.544;13.374;2024-02-21T13:42:07;14.60;99.90
2130;DHT22;1071;52.544;13.374;2024-02-21T13:44:35;14.60;99.90
2130;DHT22;1071;52.544;13.374;2024-02-21T13:47:02;14.50;99.90
2130;DHT22;1071;52.544;13.374;2024-02-21T13:49:32;14.50;99.90
2130;DHT22;1071;52.544;13.374;2024-02-21T13:51:59;14.50;99.90
2130;DHT22;1071;52.544;13.374;2024-02-21T13:54:31;14.50;99.90
2130;DHT22;1071;52.544;13.374;2024-02-21T13:56:58;14.50;99.90
2130;DHT22;1071;52.544;13.374;2024-02-21T13:59:31;14.40;99.90
2130;DHT22;1071;52.544;13.374;2024-02-21T14:02:02;14.40;99.90
2130;DHT22;1071;52.544;13.374;2024-02-21T14:04:45;14.30;99.90
2130;DHT22;1071;52.544;13.374;2024-02-21T14:07:14;14.30;99.90
2130;DHT22;1071;52.544;13.374;2024-02-21T14:09:43;14.30;99.90
2130;DHT22;1071;52.544;13.374;2024-02-21T14:12:19;14.30;99.90
2130;DHT22;1071;52.544;13.374;2024-02-21T14:14:57;14.30;99.90
2130;DHT22;1071;52.544;13.374;2024-02-21T14:17:24;14.40;99.90
2130;DHT22;1071;52.544;13.374;2024-02-21T14:19:51;14.40;99.90
2130;DHT22;1071;52.544;13.374;2024-02-21T14:22:25;14.30;99.90
2130;DHT22;1071;52.544;13.374;2024-02-21T14:24:54;14.40;99.90
2130;DHT22;1071;52.544;13.374;2024-02-21T14:27:24;14.40;99.90
2130;DHT22;1071;52.544;13.374;2024-02-21T14:29:56;14.40;99.90
2130;DHT22;1071;52.544;13.374;2024-02-21T14:32:25;14.40;99.90
2130;DHT22;1071;52.544;13.374;2024-02-21T14:34:53;14.50;99.90
2130;DHT22;1071;52.544;13.374;2024-02-21T14:37:22;14.50;99.90
2130;DHT22;1071;52.544;13.374;2024-02-21T14:39:49;14.40;99.90
2130;DHT22;1071;52.544;13.374;2024-02-21T14:42:16;14.40;99.90
2130;DHT22;1071;52.544;13.374;2024-02-21T14:44:46;14.40;99.90
2130;DHT22;1071;52.544;13.374;2024-02-21T14:47:19;14.40;99.90
2130;DHT22;1071;52.544;13.374;2024-02-21T14:49:47;14.40;99.90
2130;DHT22;1071;52.544;13.374;2024-02-21T14:52:17;14.40;99.90
2130;DHT22;1071;52.544;13.374;2024-02-21T14:54:48;14.40;99.90
2130;DHT22;1071;52.544;13.374;2024-02-21T14:57:17;14.50;99.90
2130;DHT22;1071;52.544;13.374;2024-02-21T14:59:45;14.40;99.90
2130;DHT22;1071;52.544;13.374;2024-02-21T15:02:12;14.30;99.90
2130;DHT22;1071;52.544;13.374;2024-02-21T15:04:41;14.30;99.90
2130;DHT22;1071;52.544;13.374;2024-02-21T15:07:10;14.30;99.90
2130;DHT22;1071;52.544;13.374;2024-02-21T15:09:47;14.10;99.90
2130;DHT22;1071;52.544;13.374;2024-02-21T15:12:18;14.00;99.90
2130;DHT22;1071;52.544;13.374;2024-02-21T15:14:45;13.90;99.90
2130;DHT22;1071;52.544;13.374;2024-02-21T15:17:13;13.90;99.90
2130;DHT22;1071;52.544;13.374;2024-02-21T15:19:43;14.00;99.90
2130;DHT22;1071;52.544;13.374;2024-02-21T15:22:15;13.90;99.90
2130;DHT22;1071;52.544;13.374;2024-02-21T15:24:43;14.00;99.90
2130;DHT22;1071;52.544;13.374;2024-02-21T15:27:12;13.90;99.90
2130;DHT22;1071;52.544;13.374;2024-02-21T15:29:41;13.90;99.90
2130;DHT22;1071;52.544;13.374;2024-02-21T15:32:10;14.00;99.90
2130;DHT22;1071;52.544;13.374;2024-02-21T15:34:37;13.90;99.90
2130;DHT22;1071;52.544;13.374;2024-02-21T15:37:06;13.90;99.90
2130;DHT22;1071;52.544;13.374;2024-02-21T15:39:33;13.90;99.90
2130;DHT22;1071;52.544;13.374;2024-02-21T15:42:01;13.80;99.90
2130;DHT22;1071;52.544;13.374;2024-02-21T15:44:28;13.90;99.90
2130;DHT22;1071;52.544;13.374;2024-02-21T15:46:57;13.90;99.90
2130;DHT22;1071;52.544;13.374;2024-02-21T15:49:24;13.80;99.90
2130;DHT22;1071;52.544;13.374;2024-02-21T15:52:07;13.80;99.90
2130;DHT22;1071;52.544;13.374;2024-02-21T15:54:35;13.80;99.90
2130;DHT22;1071;52.544;13.374;2024-02-21T15:57:02;13.80;99.90
2130;DHT22;1071;52.544;13.374;2024-02-21T15:59:31;13.80;99.90
2130;DHT22;1071;52.544;13.374;2024-02-21T16:01:59;13.80;99.90
2130;DHT22;1071;52.544;13.374;2024-02-21T16:04:45;13.80;99.90